首页
METAR-TAF:

METAR-TAF

机场 :

Plainview, 得克萨斯州, 美国

纬度: 34-10-05N, 经度: 101-43-02W, 海拔: 1028米

当前天气观测

该预报发布于21分钟前的18:35 UTC
风速7节,风向南转南东
温度 21°C
湿度 88%
气压 1027 hPa
能見度: 16.1公里
多云层高于800英尺
多云层高于1200英尺
阴天层高于2200英尺
小毛毛雨

METAR: KPVW 201835Z AUTO 16007KT 10SM -DZ BKN008 BKN012 OVC022 21/19 A3032 RMK AO2 T02050190

时间: 13:56 (18:56 UTC)

预报

该预报发布于27分钟前的18:29 UTC
预报有效从20日的 18点(UTC)到 21日的 18点(UTC)
风速10节,风向东南
能見度: 10公里
散云层高于4000英尺
阴天层高于10000英尺
短暂存在
从 20日的 18点(UTC)到 20日的 21点(UTC)
多云层高于1000英尺
小阵雨
从 21日的 0700点(UTC)
风速7节,风向东南
能見度: 10公里
多云层高于2500英尺

TAF: KPVW 201829Z 2018/2118 14010KT P6SM SCT040 OVC100 TEMPO 2018/2021 -SHRA BKN010 FM210700 14007KT P6SM BKN025

超过4000个机场的气象观测和天气预报(METAR&TAF报告)。

可查询的气象台以黄色和红色小点在地图上表示。

将鼠标移到小点上方,可查看气象台名称。

然后点击查看天气观测和预报。

如需切换地图:点击带黑十字的绿色按钮放大地图;点击带横线的绿色按钮缩小地图;或者点击绿色箭头查看邻近地区的地图。


METAR-TAF: